sensor_id;sensor_type;location;lat;lon;timestamp;pressure;altitude;pressure_sealevel;temperature;humidity
79136;BME280;68533;51.090;17.216;2023-07-29T00:01:25;99492.25;;;14.88;96.75
79136;BME280;68533;51.090;17.216;2023-07-29T00:03:54;99487.41;;;14.76;96.90
79136;BME280;68533;51.090;17.216;2023-07-29T00:06:20;99480.16;;;14.63;97.69
79136;BME280;68533;51.090;17.216;2023-07-29T00:08:46;99482.81;;;14.59;98.33
79136;BME280;68533;51.090;17.216;2023-07-29T00:11:12;99484.47;;;14.52;97.34
79136;BME280;68533;51.090;17.216;2023-07-29T00:13:39;99474.41;;;14.38;98.08
79136;BME280;68533;51.090;17.216;2023-07-29T00:16:05;99474.63;;;14.25;98.42
79136;BME280;68533;51.090;17.216;2023-07-29T00:18:32;99471.63;;;14.47;99.61
79136;BME280;68533;51.090;17.216;2023-07-29T00:20:58;99475.53;;;14.46;100.00
79136;BME280;68533;51.090;17.216;2023-07-29T00:23:24;99476.41;;;14.29;99.59
79136;BME280;68533;51.090;17.216;2023-07-29T00:25:50;99475.72;;;14.32;98.39
79136;BME280;68533;51.090;17.216;2023-07-29T00:28:16;99485.13;;;14.49;98.57
79136;BME280;68533;51.090;17.216;2023-07-29T00:30:50;99484.84;;;14.42;98.62
79136;BME280;68533;51.090;17.216;2023-07-29T00:33:20;99484.88;;;14.24;99.88
79136;BME280;68533;51.090;17.216;2023-07-29T00:35:46;99474.34;;;14.09;98.52
79136;BME280;68533;51.090;17.216;2023-07-29T00:38:12;99482.66;;;14.00;99.31
79136;BME280;68533;51.090;17.216;2023-07-29T00:40:38;99485.28;;;13.97;99.75
79136;BME280;68533;51.090;17.216;2023-07-29T00:43:04;99485.78;;;13.90;99.34
79136;BME280;68533;51.090;17.216;2023-07-29T00:45:32;99479.78;;;13.80;99.52
79136;BME280;68533;51.090;17.216;2023-07-29T00:47:59;99489.38;;;13.74;98.79
79136;BME280;68533;51.090;17.216;2023-07-29T00:50:26;99489.06;;;13.67;98.63
79136;BME280;68533;51.090;17.216;2023-07-29T00:52:54;99492.31;;;13.77;99.62
79136;BME280;68533;51.090;17.216;2023-07-29T00:55:20;99498.66;;;13.69;99.52
79136;BME280;68533;51.090;17.216;2023-07-29T00:57:47;99498.69;;;13.60;99.71
79136;BME280;68533;51.090;17.216;2023-07-29T01:00:15;99499.16;;;13.63;99.71
79136;BME280;68533;51.090;17.216;2023-07-29T01:02:43;99492.66;;;13.58;100.00
79136;BME280;68533;51.090;17.216;2023-07-29T01:05:12;99489.75;;;13.55;100.00
79136;BME280;68533;51.090;17.216;2023-07-29T01:13:05;99488.91;;;13.72;100.00
79136;BME280;68533;51.090;17.216;2023-07-29T01:15:39;99485.50;;;13.49;100.00
79136;BME280;68533;51.090;17.216;2023-07-29T01:18:12;99486.31;;;13.75;100.00
79136;BME280;68533;51.090;17.216;2023-07-29T01:20:42;99479.03;;;13.62;100.00
79136;BME280;68533;51.090;17.216;2023-07-29T01:23:09;99481.91;;;13.74;100.00
79136;BME280;68533;51.090;17.216;2023-07-29T01:25:49;99484.03;;;13.69;99.50
79136;BME280;68533;51.090;17.216;2023-07-29T01:28:18;99489.41;;;13.65;99.67
79136;BME280;68533;51.090;17.216;2023-07-29T01:31:16;99480.16;;;13.35;99.59
79136;BME280;68533;51.090;17.216;2023-07-29T01:33:53;99488.63;;;13.30;100.00
79136;BME280;68533;51.090;17.216;2023-07-29T01:36:32;99492.50;;;13.29;100.00
79136;BME280;68533;51.090;17.216;2023-07-29T01:39:18;99491.53;;;13.42;100.00
79136;BME280;68533;51.090;17.216;2023-07-29T01:41:57;99492.34;;;13.26;100.00
79136;BME280;68533;51.090;17.216;2023-07-29T01:44:33;99495.59;;;13.28;100.00
79136;BME280;68533;51.090;17.216;2023-07-29T01:47:03;99491.22;;;13.18;100.00
79136;BME280;68533;51.090;17.216;2023-07-29T01:49:56;99484.34;;;13.07;100.00
79136;BME280;68533;51.090;17.216;2023-07-29T01:52:29;99491.16;;;13.01;100.00
79136;BME280;68533;51.090;17.216;2023-07-29T01:55:00;99487.25;;;13.02;100.00
79136;BME280;68533;51.090;17.216;2023-07-29T01:57:31;99495.75;;;13.14;100.00
79136;BME280;68533;51.090;17.216;2023-07-29T02:00:05;99502.72;;;13.20;100.00
79136;BME280;68533;51.090;17.216;2023-07-29T02:02:31;99499.75;;;13.08;100.00
79136;BME280;68533;51.090;17.216;2023-07-29T02:05:14;99502.69;;;13.03;100.00
79136;BME280;68533;51.090;17.216;2023-07-29T02:07:54;99506.09;;;13.00;100.00
79136;BME280;68533;51.090;17.216;2023-07-29T02:10:40;99505.47;;;13.11;100.00
79136;BME280;68533;51.090;17.216;2023-07-29T02:13:33;99504.03;;;13.14;100.00
79136;BME280;68533;51.090;17.216;2023-07-29T02:16:11;99494.13;;;13.21;100.00
79136;BME280;68533;51.090;17.216;2023-07-29T02:18:48;99496.56;;;13.14;100.00
79136;BME280;68533;51.090;17.216;2023-07-29T02:21:27;99492.44;;;12.95;100.00
79136;BME280;68533;51.090;17.216;2023-07-29T02:23:55;99502.03;;;12.89;100.00
79136;BME280;68533;51.090;17.216;2023-07-29T02:26:22;99491.13;;;12.92;100.00
79136;BME280;68533;51.090;17.216;2023-07-29T02:29:08;99495.91;;;13.17;100.00
79136;BME280;68533;51.090;17.216;2023-07-29T02:31:34;99486.44;;;12.93;100.00
79136;BME280;68533;51.090;17.216;2023-07-29T02:34:00;99479.59;;;12.81;100.00
79136;BME280;68533;51.090;17.216;2023-07-29T02:36:26;99482.66;;;12.71;100.00
79136;BME280;68533;51.090;17.216;2023-07-29T02:38:52;99478.78;;;12.81;100.00
79136;BME280;68533;51.090;17.216;2023-07-29T02:41:18;99478.97;;;12.93;100.00
79136;BME280;68533;51.090;17.216;2023-07-29T02:43:48;99480.56;;;12.86;100.00
79136;BME280;68533;51.090;17.216;2023-07-29T02:46:14;99480.56;;;12.86;100.00
79136;BME280;68533;51.090;17.216;2023-07-29T02:48:41;99490.66;;;12.81;100.00
79136;BME280;68533;51.090;17.216;2023-07-29T02:51:07;99477.16;;;12.80;100.00
79136;BME280;68533;51.090;17.216;2023-07-29T02:53:34;99485.41;;;12.71;100.00
79136;BME280;68533;51.090;17.216;2023-07-29T02:56:03;99484.56;;;12.62;100.00
79136;BME280;68533;51.090;17.216;2023-07-29T02:58:29;99485.03;;;12.56;100.00
79136;BME280;68533;51.090;17.216;2023-07-29T03:01:03;99480.63;;;12.46;100.00
79136;BME280;68533;51.090;17.216;2023-07-29T03:03:30;99477.41;;;12.53;100.00
79136;BME280;68533;51.090;17.216;2023-07-29T03:06:04;99480.00;;;12.49;100.00
79136;BME280;68533;51.090;17.216;2023-07-29T03:08:30;99482.25;;;12.47;100.00
79136;BME280;68533;51.090;17.216;2023-07-29T03:10:57;99481.28;;;12.43;100.00
79136;BME280;68533;51.090;17.216;2023-07-29T03:13:24;99490.03;;;12.45;100.00
79136;BME280;68533;51.090;17.216;2023-07-29T03:15:49;99487.16;;;12.50;100.00
79136;BME280;68533;51.090;17.216;2023-07-29T03:18:16;99494.91;;;12.48;100.00
79136;BME280;68533;51.090;17.216;2023-07-29T03:20:42;99498.34;;;12.54;100.00
79136;BME280;68533;51.090;17.216;2023-07-29T03:23:08;99498.88;;;12.64;100.00
79136;BME280;68533;51.090;17.216;2023-07-29T03:25:34;99500.03;;;12.72;100.00
79136;BME280;68533;51.090;17.216;2023-07-29T03:28:00;99493.41;;;12.99;100.00
79136;BME280;68533;51.090;17.216;2023-07-29T03:30:26;99500.06;;;12.98;100.00
79136;BME280;68533;51.090;17.216;2023-07-29T03:32:52;99506.56;;;12.93;100.00
79136;BME280;68533;51.090;17.216;2023-07-29T03:35:18;99495.84;;;12.92;100.00
79136;BME280;68533;51.090;17.216;2023-07-29T03:37:45;99505.44;;;13.03;100.00
79136;BME280;68533;51.090;17.216;2023-07-29T03:40:11;99510.66;;;13.13;100.00
79136;BME280;68533;51.090;17.216;2023-07-29T03:42:41;99509.72;;;13.35;100.00
79136;BME280;68533;51.090;17.216;2023-07-29T03:45:07;99498.19;;;13.41;100.00
79136;BME280;68533;51.090;17.216;2023-07-29T03:47:33;99498.03;;;13.38;100.00
79136;BME280;68533;51.090;17.216;2023-07-29T03:49:59;99508.91;;;13.43;100.00
79136;BME280;68533;51.090;17.216;2023-07-29T03:52:26;99511.84;;;13.46;100.00
79136;BME280;68533;51.090;17.216;2023-07-29T03:54:52;99500.31;;;13.62;100.00
79136;BME280;68533;51.090;17.216;2023-07-29T03:57:18;99506.78;;;13.74;99.65
79136;BME280;68533;51.090;17.216;2023-07-29T03:59:44;99508.22;;;13.89;98.90
79136;BME280;68533;51.090;17.216;2023-07-29T04:02:10;99510.00;;;13.93;98.97
79136;BME280;68533;51.090;17.216;2023-07-29T04:04:36;99512.44;;;13.95;99.29
79136;BME280;68533;51.090;17.216;2023-07-29T04:07:02;99510.47;;;14.04;99.66
79136;BME280;68533;51.090;17.216;2023-07-29T04:09:28;99516.50;;;14.06;99.77
79136;BME280;68533;51.090;17.216;2023-07-29T04:11:55;99512.72;;;14.11;99.91
79136;BME280;68533;51.090;17.216;2023-07-29T04:14:21;99513.69;;;14.15;99.70
79136;BME280;68533;51.090;17.216;2023-07-29T04:16:47;99515.59;;;14.23;99.55
79136;BME280;68533;51.090;17.216;2023-07-29T04:19:15;99512.69;;;14.28;99.04
79136;BME280;68533;51.090;17.216;2023-07-29T04:21:41;99523.72;;;14.36;98.84
79136;BME280;68533;51.090;17.216;2023-07-29T04:24:07;99525.31;;;14.46;99.20
79136;BME280;68533;51.090;17.216;2023-07-29T04:26:33;99524.00;;;14.52;99.58
79136;BME280;68533;51.090;17.216;2023-07-29T04:28:59;99513.25;;;14.59;99.17
79136;BME280;68533;51.090;17.216;2023-07-29T04:31:25;99523.09;;;14.69;99.56
79136;BME280;68533;51.090;17.216;2023-07-29T04:33:51;99525.78;;;14.86;98.61
79136;BME280;68533;51.090;17.216;2023-07-29T04:36:17;99524.44;;;14.92;99.12
79136;BME280;68533;51.090;17.216;2023-07-29T04:38:43;99524.25;;;14.97;98.99
79136;BME280;68533;51.090;17.216;2023-07-29T04:41:12;99525.13;;;15.19;97.92
79136;BME280;68533;51.090;17.216;2023-07-29T04:43:38;99526.00;;;15.31;96.57
79136;BME280;68533;51.090;17.216;2023-07-29T04:46:07;99518.88;;;15.42;95.24
79136;BME280;68533;51.090;17.216;2023-07-29T04:48:34;99521.47;;;15.47;95.76
79136;BME280;68533;51.090;17.216;2023-07-29T04:51:02;99527.09;;;15.60;96.24
79136;BME280;68533;51.090;17.216;2023-07-29T04:53:27;99521.69;;;15.63;95.20
79136;BME280;68533;51.090;17.216;2023-07-29T04:55:54;99522.09;;;15.53;95.06
79136;BME280;68533;51.090;17.216;2023-07-29T04:58:19;99514.59;;;15.53;94.72
79136;BME280;68533;51.090;17.216;2023-07-29T05:00:49;99525.13;;;15.60;95.31
79136;BME280;68533;51.090;17.216;2023-07-29T05:03:15;99518.56;;;15.85;94.05
79136;BME280;68533;51.090;17.216;2023-07-29T05:05:41;99525.88;;;16.02;94.48
79136;BME280;68533;51.090;17.216;2023-07-29T05:08:07;99530.78;;;16.75;92.56
79136;BME280;68533;51.090;17.216;2023-07-29T05:10:34;99529.56;;;17.36;90.66
79136;BME280;68533;51.090;17.216;2023-07-29T05:13:00;99527.63;;;17.77;87.00
79136;BME280;68533;51.090;17.216;2023-07-29T05:15:26;99531.09;;;17.74;85.75
79136;BME280;68533;51.090;17.216;2023-07-29T05:17:54;99531.00;;;17.58;87.50
79136;BME280;68533;51.090;17.216;2023-07-29T05:20:20;99535.63;;;17.26;88.15
79136;BME280;68533;51.090;17.216;2023-07-29T05:22:46;99532.06;;;16.77;90.23
79136;BME280;68533;51.090;17.216;2023-07-29T05:25:12;99534.00;;;17.13;89.64
79136;BME280;68533;51.090;17.216;2023-07-29T05:27:38;99537.69;;;17.81;86.34
79136;BME280;68533;51.090;17.216;2023-07-29T05:30:05;99533.94;;;17.90;86.07
79136;BME280;68533;51.090;17.216;2023-07-29T05:32:34;99542.03;;;18.54;85.44
79136;BME280;68533;51.090;17.216;2023-07-29T05:35:00;99549.28;;;18.71;81.27
79136;BME280;68533;51.090;17.216;2023-07-29T05:37:26;99542.69;;;19.10;81.68
79136;BME280;68533;51.090;17.216;2023-07-29T05:39:53;99547.81;;;18.61;81.12
79136;BME280;68533;51.090;17.216;2023-07-29T05:42:18;99551.56;;;19.16;80.36
79136;BME280;68533;51.090;17.216;2023-07-29T05:44:45;99549.81;;;18.76;80.57
79136;BME280;68533;51.090;17.216;2023-07-29T05:47:10;99543.53;;;18.64;81.18
79136;BME280;68533;51.090;17.216;2023-07-29T05:49:37;99546.47;;;18.86;82.21
79136;BME280;68533;51.090;17.216;2023-07-29T05:52:03;99550.38;;;19.67;79.83
79136;BME280;68533;51.090;17.216;2023-07-29T05:54:29;99548.06;;;20.31;76.97
79136;BME280;68533;51.090;17.216;2023-07-29T05:56:55;99551.91;;;20.65;77.47
79136;BME280;68533;51.090;17.216;2023-07-29T05:59:21;99552.88;;;20.76;74.46
79136;BME280;68533;51.090;17.216;2023-07-29T06:01:47;99558.09;;;20.77;75.39
79136;BME280;68533;51.090;17.216;2023-07-29T06:04:13;99560.94;;;20.35;76.94
79136;BME280;68533;51.090;17.216;2023-07-29T06:06:39;99558.66;;;20.86;75.54
79136;BME280;68533;51.090;17.216;2023-07-29T06:09:05;99557.81;;;21.32;74.29
79136;BME280;68533;51.090;17.216;2023-07-29T06:11:31;99556.22;;;21.90;73.79
79136;BME280;68533;51.090;17.216;2023-07-29T06:13:57;99560.25;;;22.23;70.80
79136;BME280;68533;51.090;17.216;2023-07-29T06:16:23;99545.69;;;22.47;70.45
79136;BME280;68533;51.090;17.216;2023-07-29T06:18:51;99543.78;;;22.95;70.60
79136;BME280;68533;51.090;17.216;2023-07-29T06:21:18;99552.78;;;23.22;65.72
79136;BME280;68533;51.090;17.216;2023-07-29T06:23:46;99549.66;;;22.83;66.73
79136;BME280;68533;51.090;17.216;2023-07-29T06:26:12;99559.47;;;23.07;67.89
79136;BME280;68533;51.090;17.216;2023-07-29T06:28:38;99554.44;;;23.30;65.46
79136;BME280;68533;51.090;17.216;2023-07-29T06:31:04;99556.94;;;23.46;65.65
79136;BME280;68533;51.090;17.216;2023-07-29T06:33:30;99556.44;;;23.91;62.72
79136;BME280;68533;51.090;17.216;2023-07-29T06:35:56;99552.44;;;24.03;nan
79136;BME280;68533;51.090;17.216;2023-07-29T06:38:22;99557.44;;;24.56;61.99
79136;BME280;68533;51.090;17.216;2023-07-29T06:40:48;99561.09;;;24.77;62.20
79136;BME280;68533;51.090;17.216;2023-07-29T06:43:15;99557.91;;;25.07;58.60
79136;BME280;68533;51.090;17.216;2023-07-29T06:45:42;99563.91;;;25.41;59.39
79136;BME280;68533;51.090;17.216;2023-07-29T06:48:08;99567.91;;;24.84;59.89
79136;BME280;68533;51.090;17.216;2023-07-29T06:50:34;99563.88;;;24.53;61.17
79136;BME280;68533;51.090;17.216;2023-07-29T06:53:00;99555.03;;;24.44;60.47
79136;BME280;68533;51.090;17.216;2023-07-29T06:55:26;99563.16;;;24.95;59.69
79136;BME280;68533;51.090;17.216;2023-07-29T06:57:52;99557.50;;;25.05;59.92
79136;BME280;68533;51.090;17.216;2023-07-29T07:00:18;99551.03;;;25.58;58.80
79136;BME280;68533;51.090;17.216;2023-07-29T07:02:45;99553.69;;;26.08;58.44
79136;BME280;68533;51.090;17.216;2023-07-29T07:05:10;99550.13;;;25.89;58.42
79136;BME280;68533;51.090;17.216;2023-07-29T07:07:37;99551.09;;;26.45;54.61
79136;BME280;68533;51.090;17.216;2023-07-29T07:10:03;99547.38;;;27.14;53.82
79136;BME280;68533;51.090;17.216;2023-07-29T07:12:29;99544.53;;;27.14;53.73
79136;BME280;68533;51.090;17.216;2023-07-29T07:14:55;99555.50;;;27.05;55.50
79136;BME280;68533;51.090;17.216;2023-07-29T07:17:22;99555.25;;;26.85;53.59
79136;BME280;68533;51.090;17.216;2023-07-29T07:19:48;99537.78;;;27.46;52.33
79136;BME280;68533;51.090;17.216;2023-07-29T07:22:14;99541.97;;;27.71;51.18
79136;BME280;68533;51.090;17.216;2023-07-29T07:24:40;99543.56;;;28.06;51.85
79136;BME280;68533;51.090;17.216;2023-07-29T07:27:06;99539.91;;;28.67;49.01
79136;BME280;68533;51.090;17.216;2023-07-29T07:29:32;99548.09;;;28.88;48.34
79136;BME280;68533;51.090;17.216;2023-07-29T07:31:58;99545.00;;;27.54;49.74
79136;BME280;68533;51.090;17.216;2023-07-29T07:34:24;99546.72;;;27.40;51.40
79136;BME280;68533;51.090;17.216;2023-07-29T07:36:50;99554.94;;;27.24;53.31
79136;BME280;68533;51.090;17.216;2023-07-29T07:39:17;99554.91;;;28.64;48.30
79136;BME280;68533;51.090;17.216;2023-07-29T07:41:43;99545.09;;;28.45;48.45
79136;BME280;68533;51.090;17.216;2023-07-29T07:44:09;99551.97;;;28.98;50.02
79136;BME280;68533;51.090;17.216;2023-07-29T07:46:37;99542.19;;;29.02;48.91
79136;BME280;68533;51.090;17.216;2023-07-29T07:49:04;99538.50;;;29.28;49.36
79136;BME280;68533;51.090;17.216;2023-07-29T07:51:30;99541.72;;;29.73;46.20
79136;BME280;68533;51.090;17.216;2023-07-29T07:53:56;99542.03;;;29.36;47.19
79136;BME280;68533;51.090;17.216;2023-07-29T07:56:22;99537.13;;;29.60;45.81
79136;BME280;68533;51.090;17.216;2023-07-29T07:58:51;99535.56;;;29.79;50.18
79136;BME280;68533;51.090;17.216;2023-07-29T08:01:17;99524.53;;;28.10;49.07
79136;BME280;68533;51.090;17.216;2023-07-29T08:03:44;99533.97;;;29.11;48.91
79136;BME280;68533;51.090;17.216;2023-07-29T08:06:11;99536.97;;;29.24;46.76
79136;BME280;68533;51.090;17.216;2023-07-29T08:08:38;99535.19;;;29.96;45.21
79136;BME280;68533;51.090;17.216;2023-07-29T08:11:04;99532.25;;;29.60;47.50
79136;BME280;68533;51.090;17.216;2023-07-29T08:13:30;99532.97;;;30.07;49.26
79136;BME280;68533;51.090;17.216;2023-07-29T08:15:58;99531.84;;;29.82;44.22
79136;BME280;68533;51.090;17.216;2023-07-29T08:18:24;99532.81;;;29.52;46.54
79136;BME280;68533;51.090;17.216;2023-07-29T08:20:56;99530.25;;;28.07;49.54
79136;BME280;68533;51.090;17.216;2023-07-29T08:23:26;99528.38;;;28.54;48.00
79136;BME280;68533;51.090;17.216;2023-07-29T08:25:53;99524.72;;;29.30;47.58
79136;BME280;68533;51.090;17.216;2023-07-29T08:28:22;99514.22;;;27.25;51.00
79136;BME280;68533;51.090;17.216;2023-07-29T08:30:48;99511.91;;;25.88;55.11
79136;BME280;68533;51.090;17.216;2023-07-29T08:33:15;99506.28;;;28.18;49.90
79136;BME280;68533;51.090;17.216;2023-07-29T08:35:41;99504.44;;;28.89;48.19
79136;BME280;68533;51.090;17.216;2023-07-29T08:38:07;99507.16;;;28.15;47.79
79136;BME280;68533;51.090;17.216;2023-07-29T08:40:34;99506.44;;;28.88;46.17
79136;BME280;68533;51.090;17.216;2023-07-29T08:43:06;99503.53;;;28.42;48.42
79136;BME280;68533;51.090;17.216;2023-07-29T08:45:35;99493.34;;;28.21;48.52
79136;BME280;68533;51.090;17.216;2023-07-29T08:48:02;99495.47;;;28.90;46.55
79136;BME280;68533;51.090;17.216;2023-07-29T08:50:33;99492.78;;;29.07;46.30
79136;BME280;68533;51.090;17.216;2023-07-29T08:53:03;99491.00;;;29.16;47.09
79136;BME280;68533;51.090;17.216;2023-07-29T08:55:31;99487.44;;;27.78;49.53
79136;BME280;68533;51.090;17.216;2023-07-29T08:57:58;99491.41;;;27.05;50.81
79136;BME280;68533;51.090;17.216;2023-07-29T09:00:25;99477.66;;;27.49;51.86
79136;BME280;68533;51.090;17.216;2023-07-29T09:02:51;99477.88;;;27.99;49.47
79136;BME280;68533;51.090;17.216;2023-07-29T09:05:18;99472.13;;;27.38;48.79
79136;BME280;68533;51.090;17.216;2023-07-29T09:07:44;99472.28;;;26.79;52.58
79136;BME280;68533;51.090;17.216;2023-07-29T09:10:14;99475.09;;;26.27;53.79
79136;BME280;68533;51.090;17.216;2023-07-29T09:12:41;99476.56;;;26.50;53.10
79136;BME280;68533;51.090;17.216;2023-07-29T09:15:09;99476.97;;;27.75;49.56
79136;BME280;68533;51.090;17.216;2023-07-29T09:17:35;99469.19;;;27.83;50.10
79136;BME280;68533;51.090;17.216;2023-07-29T09:20:03;99465.06;;;27.57;50.55
79136;BME280;68533;51.090;17.216;2023-07-29T09:22:30;99468.06;;;28.61;46.34
79136;BME280;68533;51.090;17.216;2023-07-29T09:24:57;99471.28;;;28.89;45.43
79136;BME280;68533;51.090;17.216;2023-07-29T09:27:24;99473.78;;;28.84;46.63
79136;BME280;68533;51.090;17.216;2023-07-29T09:29:52;99474.41;;;28.68;46.61
79136;BME280;68533;51.090;17.216;2023-07-29T09:32:21;99470.91;;;28.61;44.52
79136;BME280;68533;51.090;17.216;2023-07-29T09:34:48;99468.31;;;28.97;46.33
79136;BME280;68533;51.090;17.216;2023-07-29T09:37:32;99473.44;;;30.07;42.51
79136;BME280;68533;51.090;17.216;2023-07-29T09:40:01;99469.50;;;30.01;43.27
79136;BME280;68533;51.090;17.216;2023-07-29T09:42:27;99466.03;;;29.54;43.82
79136;BME280;68533;51.090;17.216;2023-07-29T09:44:54;99468.00;;;28.91;46.13
79136;BME280;68533;51.090;17.216;2023-07-29T09:47:24;99460.97;;;28.76;45.10
79136;BME280;68533;51.090;17.216;2023-07-29T09:49:52;99459.59;;;28.61;46.11
79136;BME280;68533;51.090;17.216;2023-07-29T09:52:19;99458.41;;;28.35;46.58
79136;BME280;68533;51.090;17.216;2023-07-29T09:54:46;99453.59;;;28.32;46.72
79136;BME280;68533;51.090;17.216;2023-07-29T09:57:17;99467.88;;;29.81;44.22
79136;BME280;68533;51.090;17.216;2023-07-29T09:59:54;99459.63;;;30.26;42.67
79136;BME280;68533;51.090;17.216;2023-07-29T10:02:20;99453.53;;;29.28;44.16
79136;BME280;68533;51.090;17.216;2023-07-29T10:04:48;99457.50;;;29.34;42.32
79136;BME280;68533;51.090;17.216;2023-07-29T10:07:15;99452.09;;;29.63;44.26
79136;BME280;68533;51.090;17.216;2023-07-29T10:09:44;99451.72;;;28.48;45.84
79136;BME280;68533;51.090;17.216;2023-07-29T10:12:11;99443.19;;;28.52;47.32
79136;BME280;68533;51.090;17.216;2023-07-29T10:14:38;99451.63;;;29.85;42.19
79136;BME280;68533;51.090;17.216;2023-07-29T10:17:07;99457.13;;;29.72;42.62
79136;BME280;68533;51.090;17.216;2023-07-29T10:19:34;99457.50;;;29.74;42.99
79136;BME280;68533;51.090;17.216;2023-07-29T10:22:03;99446.16;;;28.91;44.99
79136;BME280;68533;51.090;17.216;2023-07-29T10:24:30;99441.84;;;28.06;46.74
79136;BME280;68533;51.090;17.216;2023-07-29T10:27:00;99437.75;;;28.88;46.46
79136;BME280;68533;51.090;17.216;2023-07-29T10:29:31;99443.75;;;29.56;44.40
79136;BME280;68533;51.090;17.216;2023-07-29T10:32:01;99450.75;;;29.68;43.40
79136;BME280;68533;51.090;17.216;2023-07-29T10:34:31;99453.31;;;30.18;42.25
79136;BME280;68533;51.090;17.216;2023-07-29T10:37:00;99432.59;;;29.65;42.20
79136;BME280;68533;51.090;17.216;2023-07-29T10:39:26;99439.72;;;30.45;41.71
79136;BME280;68533;51.090;17.216;2023-07-29T10:41:55;99430.84;;;31.08;40.79
79136;BME280;68533;51.090;17.216;2023-07-29T10:47:14;99424.16;;;27.34;47.66
79136;BME280;68533;51.090;17.216;2023-07-29T10:49:42;99425.53;;;26.82;49.78
79136;BME280;68533;51.090;17.216;2023-07-29T10:52:13;99416.94;;;26.51;50.17
79136;BME280;68533;51.090;17.216;2023-07-29T10:54:44;99410.94;;;26.46;49.18
79136;BME280;68533;51.090;17.216;2023-07-29T10:57:31;99404.97;;;27.87;47.24
79136;BME280;68533;51.090;17.216;2023-07-29T10:59:58;99409.63;;;28.77;45.34
79136;BME280;68533;51.090;17.216;2023-07-29T11:02:35;99407.88;;;29.07;43.24
79136;BME280;68533;51.090;17.216;2023-07-29T11:05:16;99393.88;;;30.96;41.62
79136;BME280;68533;51.090;17.216;2023-07-29T11:07:48;99394.84;;;30.89;40.67
79136;BME280;68533;51.090;17.216;2023-07-29T11:10:16;99398.84;;;31.20;40.26
79136;BME280;68533;51.090;17.216;2023-07-29T11:12:49;99394.28;;;28.98;42.60
79136;BME280;68533;51.090;17.216;2023-07-29T11:15:29;99387.25;;;30.37;41.81
79136;BME280;68533;51.090;17.216;2023-07-29T11:17:56;99380.41;;;29.83;41.83
79136;BME280;68533;51.090;17.216;2023-07-29T11:20:31;99388.53;;;30.53;40.95
79136;BME280;68533;51.090;17.216;2023-07-29T11:22:59;99373.63;;;29.60;42.24
79136;BME280;68533;51.090;17.216;2023-07-29T11:25:28;99379.16;;;30.20;40.97
79136;BME280;68533;51.090;17.216;2023-07-29T11:27:59;99372.44;;;30.14;40.67
79136;BME280;68533;51.090;17.216;2023-07-29T11:30:26;99369.59;;;29.97;41.98
79136;BME280;68533;51.090;17.216;2023-07-29T11:32:53;99364.47;;;29.89;40.24
79136;BME280;68533;51.090;17.216;2023-07-29T11:35:22;99369.16;;;30.15;40.96
79136;BME280;68533;51.090;17.216;2023-07-29T11:37:50;99365.16;;;30.61;38.89
79136;BME280;68533;51.090;17.216;2023-07-29T11:40:19;99361.34;;;30.03;40.45
79136;BME280;68533;51.090;17.216;2023-07-29T11:42:46;99367.41;;;29.85;41.87
79136;BME280;68533;51.090;17.216;2023-07-29T11:45:14;99354.97;;;29.23;40.66
79136;BME280;68533;51.090;17.216;2023-07-29T11:47:40;99344.09;;;30.14;40.96
79136;BME280;68533;51.090;17.216;2023-07-29T11:50:10;99348.81;;;30.53;39.98
79136;BME280;68533;51.090;17.216;2023-07-29T11:52:37;99347.44;;;29.56;42.11
79136;BME280;68533;51.090;17.216;2023-07-29T11:55:05;99337.00;;;30.54;39.41
79136;BME280;68533;51.090;17.216;2023-07-29T11:57:35;99344.28;;;29.87;40.76
79136;BME280;68533;51.090;17.216;2023-07-29T12:00:06;99338.88;;;29.76;41.09
79136;BME280;68533;51.090;17.216;2023-07-29T12:02:37;99333.53;;;28.13;43.74
79136;BME280;68533;51.090;17.216;2023-07-29T12:05:04;99332.53;;;28.50;44.46
79136;BME280;68533;51.090;17.216;2023-07-29T12:07:31;99332.81;;;28.32;46.25
79136;BME280;68533;51.090;17.216;2023-07-29T12:09:59;99345.31;;;27.51;47.92
79136;BME280;68533;51.090;17.216;2023-07-29T12:12:25;99342.25;;;27.99;46.11
79136;BME280;68533;51.090;17.216;2023-07-29T12:14:54;99335.56;;;28.12;46.38
79136;BME280;68533;51.090;17.216;2023-07-29T12:17:22;99345.31;;;29.21;44.29
79136;BME280;68533;51.090;17.216;2023-07-29T12:19:48;99337.94;;;28.41;45.83
79136;BME280;68533;51.090;17.216;2023-07-29T12:22:19;99341.53;;;28.65;44.38
79136;BME280;68533;51.090;17.216;2023-07-29T12:24:45;99345.25;;;29.44;42.67
79136;BME280;68533;51.090;17.216;2023-07-29T12:27:15;99337.63;;;28.58;43.56
79136;BME280;68533;51.090;17.216;2023-07-29T12:29:43;99331.59;;;27.83;44.86
79136;BME280;68533;51.090;17.216;2023-07-29T12:32:10;99333.81;;;28.45;44.33
79136;BME280;68533;51.090;17.216;2023-07-29T12:34:38;99334.13;;;28.51;42.32
79136;BME280;68533;51.090;17.216;2023-07-29T12:37:05;99321.94;;;28.54;41.13
79136;BME280;68533;51.090;17.216;2023-07-29T12:39:34;99317.13;;;28.74;43.32
79136;BME280;68533;51.090;17.216;2023-07-29T12:42:02;99315.63;;;29.49;40.75
79136;BME280;68533;51.090;17.216;2023-07-29T12:44:33;99307.88;;;29.33;41.04
79136;BME280;68533;51.090;17.216;2023-07-29T12:47:01;99308.09;;;29.03;40.76
79136;BME280;68533;51.090;17.216;2023-07-29T12:49:29;99301.81;;;28.72;43.17
79136;BME280;68533;51.090;17.216;2023-07-29T12:52:00;99299.78;;;29.51;41.78
79136;BME280;68533;51.090;17.216;2023-07-29T12:54:26;99298.16;;;28.94;41.27
79136;BME280;68533;51.090;17.216;2023-07-29T12:56:52;99289.69;;;28.28;42.20
79136;BME280;68533;51.090;17.216;2023-07-29T12:59:18;99295.66;;;28.34;42.92
79136;BME280;68533;51.090;17.216;2023-07-29T13:01:44;99299.25;;;29.01;43.12